Flight Track Log - Related Links

Times and Time Zones

All times are in EDT time to prevent confusion due to time zone crossing. See the SWA419 flight status page for this flight to view local times or setup timezone preferences in your user account.

Time Position Orientation Groundspeed Altitude Reporting Facility
EDT Latitude Longitude Course Direction KTS MPH feet Rate Location/Type
Fri 14:18:02 39.1667 -76.7500 303° West 234 269 4,900  Level Potomac TRACON
Fri 14:19:03 39.1833 -76.8500 282° West 292 336 7,800 3,421 Climbing Potomac TRACON
Fri 14:20:03 39.2167 -76.9667 290° West 309 356 11,800 2,950 Climbing Potomac TRACON
Fri 14:21:03 39.2167 -77.0833 270° West 368 423 13,700 2,191 Climbing Potomac TRACON
Fri 14:22:00 38.9947 -77.3379 252° West  Level FlightAware Approximate
Fri 14:23:01 39.0956 -77.2658 230° Southwest 366 421 18,300  Level Washington Center
Fri 14:23:58 39.0542 -77.4011 249° West 389 448 20,900 2,542 Climbing Washington Center
Fri 14:24:59 39.0183 -77.5447 252° West 411 473 23,300 2,479 Climbing Washington Center
Fri 14:25:59 38.9803 -77.7039 253° West 426 490 25,900 2,132 Climbing Washington Center
Fri 14:27:00 38.9489 -77.8364 253° West 434 499 27,600 1,623 Climbing Washington Center
Fri 14:28:01 38.9058 -78.0058 252° West 443 510 29,200 1,916 Climbing Washington Center
Fri 14:28:59 38.8672 -78.1564 252° West 448 516 31,400 2,237 Climbing Washington Center
Fri 14:29:59 38.8514 -78.3078 262° West 443 510 33,600 1,736 Climbing Washington Center
Fri 14:31:00 38.8500 -78.4572 269° West 432 497 34,900 1,377 Climbing Washington Center
Fri 14:32:01 38.8506 -78.6064 270° West 425 489 36,400 1,412 Climbing Washington Center
Fri 14:32:59 38.8489 -78.7531 269° West 420 483 37,700 807 Climbing Washington Center
Fri 14:34:00 38.8389 -78.8964 265° West 420 483 38,000 149 Climbing Washington Center
Fri 14:35:00 38.8161 -79.0419 259° West 420 483 38,000  Level Washington Center
Fri 14:36:01 38.7931 -79.1847 258° West 420 483 38,000  Level Washington Center
Fri 14:36:59 38.7744 -79.3169 260° West 420 483 38,000  Level Washington Center
Fri 14:37:59 38.7486 -79.4728 258° West 425 489 38,000  Level Washington Center
Fri 14:39:00 38.7272 -79.6128 259° West 418 481 38,000  Level Washington Center
Fri 14:40:00 38.7036 -79.7550 258° West 412 474 38,000  Level Washington Center
Fri 14:41:03 38.6828 -79.8789 258° West 407 468 38,000  Level Washington Center
Fri 14:43:03 38.6319 -80.1614 257° West 408 470 38,000  Level Indianapolis Center
Fri 14:44:05 38.6075 -80.3025 258° West 407 468 38,000  Level Indianapolis Center
Fri 14:45:07 38.5792 -80.4714 258° West 405 466 38,000  Level Indianapolis Center
Fri 14:46:09 38.5542 -80.6158 258° West 413 475 38,000  Level Indianapolis Center
Fri 14:47:11 38.5297 -80.7589 258° West 413 475 38,000  Level Indianapolis Center
Fri 14:48:13 38.5053 -80.9025 258° West 413 475 38,000  Level Indianapolis Center
Fri 14:49:15 38.4797 -81.0469 257° West 415 478 38,000  Level Indianapolis Center
Fri 14:50:17 38.4536 -81.1939 257° West 421 484 38,000  Level Indianapolis Center
Fri 14:51:19 38.4267 -81.3425 257° West 426 490 38,000  Level Indianapolis Center
Fri 14:52:21 38.4003 -81.4894 257° West 422 486 38,000  Level Indianapolis Center
Fri 14:53:23 38.3686 -81.6661 257° West 420 483 38,000  Level Indianapolis Center
Fri 14:54:25 38.3386 -81.8119 255° West 424 488 38,000  Level Indianapolis Center
Fri 14:55:27 38.2994 -81.9533 251° West 423 487 38,000  Level Indianapolis Center
Fri 14:56:29 38.2592 -82.0931 250° West 422 486 38,000  Level Indianapolis Center
Fri 14:57:31 38.2194 -82.2342 250° West 423 487 38,000  Level Indianapolis Center
Fri 14:58:33 38.1800 -82.3725 250° West 418 481 38,000  Level Indianapolis Center
Fri 14:59:35 38.1378 -82.5211 250° West 419 482 38,000  Level Indianapolis Center
Fri 15:00:37 38.0981 -82.6594 250° West 418 481 38,000  Level Indianapolis Center
Fri 15:01:39 38.0514 -82.8206 250° West 418 481 38,000  Level Indianapolis Center
Fri 15:02:41 38.0106 -82.9581 249° West 418 481 38,000  Level Indianapolis Center
Fri 15:04:45 37.9294 -83.2350 250° West 420 483 38,000  Level Indianapolis Center
Fri 15:05:47 37.8886 -83.3731 249° West 420 483 38,000  Level Indianapolis Center
Fri 15:06:49 37.8406 -83.5375 250° West 426 490 38,000  Level Indianapolis Center
Fri 15:07:52 37.7989 -83.6761 249° West 423 487 38,000  Level Indianapolis Center
Fri 15:08:54 37.7567 -83.8161 249° West 425 489 38,000  Level Indianapolis Center
Fri 15:09:56 37.7142 -83.9567 249° West 428 493 38,000  Level Indianapolis Center
Fri 15:10:58 37.6719 -84.0958 249° West 427 491 38,000  Level Indianapolis Center
Fri 15:12:00 37.6222 -84.2583 249° West 427 491 38,000  Level Indianapolis Center
Fri 15:13:02 37.5800 -84.3956 249° West 422 486 38,000  Level Indianapolis Center
Fri 15:14:04 37.5381 -84.5344 249° West 423 487 38,000  Level Indianapolis Center
Fri 15:15:06 37.4933 -84.6722 248° West 424 488 38,000  Level Indianapolis Center
Fri 15:16:08 37.4517 -84.8097 249° West 422 486 38,000  Level Indianapolis Center
Fri 15:17:10 37.4014 -84.9706 249° West 425 489 38,000  Level Indianapolis Center
Fri 15:18:12 37.3594 -85.1081 249° West 423 487 38,000  Level Indianapolis Center
Fri 15:19:14 37.3158 -85.2450 248° West 422 486 38,000  Level Indianapolis Center
Fri 15:20:16 37.2719 -85.3836 248° West 423 487 38,000  Level Indianapolis Center
Fri 15:21:18 37.2267 -85.5233 248° West 426 490 38,000  Level Indianapolis Center
Fri 15:22:20 37.1825 -85.6631 248° West 427 491 38,000  Level Indianapolis Center
Fri 15:22:44 37.1583 -85.7372 248° West 430 495 38,000  Level Memphis Center
Fri 15:23:44 37.1156 -85.8750 249° West 430 495 38,000  Level Memphis Center
Fri 15:24:44 37.0722 -86.0100 248° West 423 487 38,000  Level Memphis Center
Fri 15:25:44 37.0269 -86.1450 247° West 423 487 38,000  Level Memphis Center
Fri 15:26:44 36.9817 -86.2822 248° West 423 487 38,000  Level Memphis Center
Fri 15:27:44 36.9400 -86.4142 248° West 418 481 38,000  Level Memphis Center
Fri 15:28:44 36.8792 -86.5364 238° Southwest 412 474 38,000  Level Memphis Center
Fri 15:29:44 36.8183 -86.6586 238° Southwest 424 488 38,000  Level Memphis Center
Fri 15:30:44 36.7631 -86.7672 238° Southwest 424 488 38,000  Level Memphis Center
Fri 15:31:44 36.7000 -86.8919 238° Southwest 424 488 38,000  Level Memphis Center
Fri 15:32:44 36.6367 -87.0108 236° Southwest 424 488 38,000  Level Memphis Center
Fri 15:33:44 36.5753 -87.1322 238° Southwest 419 482 38,000  Level Memphis Center
Fri 15:34:44 36.5117 -87.2511 236° Southwest 419 482 38,000  Level Memphis Center
Fri 15:35:44 36.4497 -87.3694 237° Southwest 419 482 38,000  Level Memphis Center
Fri 15:36:44 36.3858 -87.4878 236° Southwest 419 482 38,000  Level Memphis Center
Fri 15:37:44 36.3219 -87.6111 237° Southwest 419 482 38,000  Level Memphis Center
Fri 15:38:44 36.2600 -87.7264 236° Southwest 419 482 38,000  Level Memphis Center
Fri 15:39:44 36.1978 -87.8467 237° Southwest 419 482 38,000  Level Memphis Center
Fri 15:40:44 36.1311 -87.9619 234° Southwest 419 482 38,000  Level Memphis Center
Fri 15:41:44 36.0650 -88.0947 238° Southwest 419 482 38,000  Level Memphis Center
Fri 15:42:44 36.0003 -88.2069 235° Southwest 414 476 38,000  Level Memphis Center
Fri 15:43:44 35.9333 -88.3267 235° Southwest 414 476 38,000  Level Memphis Center
Fri 15:44:44 35.8686 -88.4486 237° Southwest 425 489 38,000  Level Memphis Center
Fri 15:45:44 35.8139 -88.5447 235° Southwest 425 489 38,000  Level Memphis Center
Fri 15:46:44 35.7447 -88.6714 236° Southwest 425 489 38,000  Level Memphis Center
Fri 15:47:44 35.6794 -88.7878 235° Southwest 425 489 38,000  Level Memphis Center
Fri 15:48:44 35.6122 -88.9219 238° Southwest 420 483 38,000  Level Memphis Center
Fri 15:49:44 35.5467 -89.0353 235° Southwest 420 483 38,000  Level Memphis Center
Fri 15:50:44 35.4833 -89.1536 237° Southwest 420 483 38,000  Level Memphis Center
Fri 15:51:44 35.4217 -89.2639 236° Southwest 412 474 38,000  Level Memphis Center
Fri 15:52:44 35.3581 -89.3769 235° Southwest 412 474 38,000  Level Memphis Center
Fri 15:53:44 35.2942 -89.4894 235° Southwest 406 467 38,000  Level Memphis Center
Fri 15:54:44 35.2303 -89.6072 236° Southwest 406 467 38,000  Level Memphis Center
Fri 15:55:44 35.1683 -89.7219 237° Southwest 406 467 38,000  Level Memphis Center
Fri 15:56:44 35.1042 -89.8367 236° Southwest 411 473 38,000  Level Memphis Center
Fri 15:57:44 35.0381 -89.9539 235° Southwest 416 479 38,000  Level Memphis Center
Fri 15:58:44 34.9714 -90.0631 233° Southwest 415 478 38,000  Level Memphis Center
Fri 15:59:44 34.9008 -90.1722 232° Southwest 410 472 38,000  Level Memphis Center
Fri 16:00:44 34.8342 -90.2761 232° Southwest 405 466 38,000  Level Memphis Center
Fri 16:01:44 34.7675 -90.3825 233° Southwest 405 466 38,000  Level Memphis Center
Fri 16:02:44 34.7089 -90.4783 233° Southwest 399 459 38,000  Level Memphis Center
Fri 16:03:44 34.6419 -90.5819 232° Southwest 399 459 38,000  Level Memphis Center
Fri 16:04:44 34.5772 -90.6875 233° Southwest 392 451 38,000  Level Memphis Center
Fri 16:05:44 34.5122 -90.7983 235° Southwest 397 457 38,000  Level Memphis Center
Fri 16:06:44 34.4450 -90.9011 232° Southwest 397 457 38,000  Level Memphis Center
Fri 16:07:44 34.3778 -91.0089 233° Southwest 397 457 38,000  Level Memphis Center
Fri 16:08:44 34.3103 -91.1167 233° Southwest 402 463 38,000  Level Memphis Center
Fri 16:09:44 34.2364 -91.2364 233° Southwest 407 468 38,000  Level Memphis Center
Fri 16:10:44 34.1647 -91.3411 230° Southwest 407 468 38,000  Level Memphis Center
Fri 16:11:44 34.0969 -91.4533 234° Southwest 412 474 38,000  Level Memphis Center
Fri 16:12:44 34.0250 -91.5628 232° Southwest 417 480 38,000  Level Memphis Center
Fri 16:13:44 33.9550 -91.6744 233° Southwest 422 486 38,000  Level Memphis Center
Fri 16:14:44 33.8978 -91.7711 235° Southwest 410 472 38,000  Level Memphis Center
Fri 16:15:44 33.8275 -91.8800 232° Southwest 410 472 38,000  Level Memphis Center
Fri 16:17:27 33.6986 -92.0708 231° Southwest 403 464 38,000  Level Fort Worth Center
Fri 16:18:27 33.6322 -92.1747 233° Southwest 408 470 38,000  Level Fort Worth Center
Fri 16:19:27 33.5675 -92.2758 232° Southwest 408 470 38,000  Level Fort Worth Center
Fri 16:20:27 33.4986 -92.3794 231° Southwest 403 464 38,000  Level Fort Worth Center
Fri 16:21:27 33.4317 -92.4828 232° Southwest 403 464 38,000  Level Fort Worth Center
Fri 16:22:27 33.3647 -92.5836 232° Southwest 403 464 38,000  Level Fort Worth Center
Fri 16:23:27 33.2956 -92.6867 231° Southwest 403 464 38,000  Level Fort Worth Center
Fri 16:24:27 33.2217 -92.7775 226° Southwest 397 457 38,000  Level Fort Worth Center
Fri 16:25:27 33.1350 -92.8614 219° Southwest 397 457 38,000  Level Fort Worth Center
Fri 16:26:27 33.0483 -92.9453 219° Southwest 402 463 38,000  Level Fort Worth Center
Fri 16:27:27 32.9797 -93.0106 219° Southwest 407 468 38,000  Level Fort Worth Center
Fri 16:28:27 32.8828 -93.1019 218° Southwest 407 468 38,000  Level Fort Worth Center
Fri 16:29:27 32.7958 -93.1853 219° Southwest 407 468 38,000  Level Fort Worth Center
Fri 16:30:27 32.7089 -93.2706 220° Southwest 407 468 38,000  Level Fort Worth Center
Fri 16:31:27 32.6086 -93.3319 207° Southwest 407 468 38,000  Level Fort Worth Center
Fri 16:32:27 32.5042 -93.3933 206° Southwest 407 468 38,000  Level Fort Worth Center
Fri 16:33:27 32.4169 -93.4761 219° Southwest 407 468 38,000  Level Fort Worth Center
Fri 16:34:27 32.3361 -93.5631 222° Southwest 407 468 38,000  Level Fort Worth Center
Fri 16:35:27 32.2511 -93.6503 221° Southwest 407 468 38,000  Level Fort Worth Center
Fri 16:36:27 32.1725 -93.7417 225° Southwest 407 468 38,000  Level Fort Worth Center
Fri 16:37:27 32.0872 -93.8286 221° Southwest 407 468 38,000  Level Fort Worth Center
Fri 16:38:27 32.0042 -93.9175 222° Southwest 412 474 38,000  Level Fort Worth Center
Fri 16:39:27 31.9211 -94.0089 223° Southwest 412 474 38,000  Level Fort Worth Center
Fri 16:40:27 31.8397 -94.0950 222° Southwest 407 468 38,000  Level Fort Worth Center
Fri 16:41:27 31.7544 -94.1811 221° Southwest 407 468 38,000  Level Fort Worth Center
Fri 16:43:24 31.5872 -94.3542 221° Southwest 396 456 38,000  Level Houston Center
Fri 16:44:26 31.5056 -94.4392 222° Southwest 393 452 38,000  Level Houston Center
Fri 16:45:28 31.4219 -94.5253 221° Southwest 397 457 38,000  Level Houston Center
Fri 16:46:30 31.3392 -94.6100 221° Southwest 397 457 38,000  Level Houston Center
Fri 16:47:33 31.2578 -94.6939 221° Southwest 400 460 38,000  Level Houston Center
Fri 16:48:35 31.1572 -94.7975 221° Southwest 402 463 38,000  Level Houston Center
Fri 16:49:37 31.0781 -94.8781 221° Southwest 404 465 38,000  Level Houston Center
Fri 16:50:39 30.9961 -94.9617 221° Southwest 396 456 38,000  Level Houston Center
Fri 16:51:41 30.9144 -95.0456 221° Southwest 392 451 38,000  Level Houston Center
Fri 16:52:43 30.8153 -95.1464 221° Southwest 392 451 38,000  Level Houston Center
Fri 16:53:45 30.7336 -95.2292 221° Southwest 391 450 38,000  Level Houston Center
Fri 16:54:47 30.6514 -95.3125 221° Southwest 390 449 38,000  Level Houston Center
Fri 16:55:49 30.5697 -95.3944 221° Southwest 390 449 38,000  Level Houston Center
Fri 16:56:51 30.4839 -95.4800 221° Southwest 390 449 38,000  Level Houston Center
Fri 16:57:54 30.4031 -95.5631 222° Southwest 390 449 38,000  Level Houston Center
Fri 16:58:56 30.3206 -95.6447 221° Southwest 391 450 38,000  Level Houston Center
Fri 16:59:58 30.2233 -95.7422 221° Southwest 388 447 38,000  Level Houston Center
Fri 17:01:00 30.1422 -95.8239 221° Southwest 388 447 38,000  Level Houston Center
Fri 17:02:02 30.0608 -95.9033 220° Southwest 386 444 38,000  Level Houston Center
Fri 17:03:04 29.9792 -95.9844 221° Southwest 388 447 38,000  Level Houston Center
Fri 17:04:06 29.8961 -96.0661 220° Southwest 386 444 38,000  Level Houston Center
Fri 17:05:08 29.8147 -96.1467 221° Southwest 386 444 38,000  Level Houston Center
Fri 17:06:10 29.7861 -96.2711 255° West 350 403 38,000  Level Houston Center
Fri 17:07:12 29.7939 -96.3822 275° West 349 402 38,000  Level Houston Center
Fri 17:08:14 29.8017 -96.4917 275° West 349 402 38,000 -1,016 Level Houston Center
Fri 17:09:16 29.8103 -96.6017 275° West 348 400 35,900 -1,968 Descending Houston Center
Fri 17:10:19 29.8183 -96.7094 275° West 341 392 33,900 -2,112 Descending Houston Center
Fri 17:11:21 29.8275 -96.8389 275° West 342 394 31,500 -2,129 Descending Houston Center
Fri 17:12:23 29.8356 -96.9467 275° West 341 392 29,500 -1,887 Descending Houston Center
Fri 17:13:25 29.8428 -97.0517 275° West 336 387 27,600 -1,597 Descending Houston Center
Fri 17:14:27 29.8497 -97.1550 274° West 329 379 26,200 -1,016 Descending Houston Center
Fri 17:15:29 29.8589 -97.2753 275° West 373 429 25,500 -1,500 Descending Houston Center
Fri 17:16:31 29.8683 -97.4219 274° West 383 441 23,100 -2,516 Descending Houston Center
Fri 17:17:33 29.8769 -97.5475 275° West 371 427 20,300 -2,512 Descending Houston Center
Fri 17:18:40 29.8844 -97.6706 274° West 361 415 17,700 -2,578 Descending Houston Center
Fri 17:19:41 29.8933 -97.7828 275° West 350 403 14,800 -2,350 Descending Houston Center
Fri 17:20:40 29.8847 -97.8908 265° West 349 402 13,000 -1,289 Descending Houston Center
Fri 17:21:42 29.8422 -97.9908 244° Southwest 347 399 12,200 -1,016 Descending Houston Center
Fri 17:22:44 29.8019 -98.0881 244° Southwest 310 357 10,900 -1,268 Descending Houston Center
Fri 17:23:45 29.7664 -98.1697 243° Southwest 278 320 9,600 -1,475 Descending Houston Center
Fri 17:24:46 29.7339 -98.2508 245° Southwest 274 315 7,900 -1,500 Descending Houston Center
Fri 17:25:41 29.7008 -98.3244 243° Southwest 279 321 6,700 -1,034 Descending Houston Center
Fri 17:26:42 29.6528 -98.3931 231° Southwest 273 314 5,900 -724 Descending Houston Center
Fri 17:27:37 29.5903 -98.3981 184° South 255 293 5,300 -583 Descending Houston Center
Fri 17:27:54 29.5697 -98.4000 185° South 251 289 5,200 -700 Descending Houston Center
Fri 17:28:37 29.5297 -98.3814 158° South 216 249 4,600 -1,065 Descending Houston Center
Fri 17:28:56 29.5139 -98.3728 155° Southeast 219 252 4,100 -1,343 Descending Houston Center
Fri 17:29:44 29.4758 -98.3881 199° South 173 199 3,100 -1,321 Descending Houston Center
Fri 17:30:45 29.4939 -98.4242 300° West 123 142 1,700 -1,184 Descending Houston Center
Fri 17:31:00 29.5014 -98.4317 319° Northwest 136 157 1,600 -692 Descending Houston Center
Fri 17:32:03 29.5286 -98.4661 312° West 134 154 800 -762 Descending Houston Center

Login

Don't have an account? Register now (free) for customized features, flight alerts, and more!